Dades meteomassalio
Diari Summary for Octubre 4, 2017 Units:  English    Metric   Both
« Previous Day
Next Day »
Diari Semanal Mensual Anual Personalitzat
  Maxima: Minima: Mijana:
Temperatura: TemperatureC °F 8.9 °F 17.6 °F
Rosada: DewpointC °F 7.2 °F 11.8 °F
Humitat: Humidity % 42 % 70 %
Velocitat del vent: WindSpeedKMH mph 0.0 mph 4.3 mph
Racha vent: WindSpeedGustKMH mph - -
Vent:- - SSW
Pressio: PressurehPa in 1023.2 in -
Pluja: 0.0 in    
Historical Graphs
 
 
Tabular Data for Octubre 4, 2017
Time Temperature Dew Point Pressure Wind Wind Speed Wind Gust Humidity Rainfall Rate (Hourly) solar Conditions
TemperatureC °F DewpointC °F PressurehPa in Calm     Humidity % HourlyPrecipMM in SolarRadiationWatts/m^2 W/m2 Conditions
00:03 13.9 °F 10.1 °F 1024.6 in Calm     78 % 0.0 in 0.0 W/m2 CLR
00:04 13.9 °F 10.1 °F 1024.9 in Calm     78 % 0.0 in 0.0 W/m2 CLR
00:09 13.9 °F 10.1 °F 1024.9 in Calm     78 % 0.0 in 0.0 W/m2 CLR
00:14 13.9 °F 10.1 °F 1024.9 in Calm     78 % 0.0 in 0.0 W/m2 CLR
00:19 13.9 °F 10.1 °F 1024.9 in Calm     78 % 0.0 in 0.0 W/m2 CLR
00:24 13.9 °F 10.1 °F 1025.3 in Calm     78 % 0.0 in 0.0 W/m2 CLR
00:29 13.3 °F 9.6 °F 1025.3 in Calm     78 % 0.0 in 0.0 W/m2 CLR
00:34 13.3 °F 9.6 °F 1025.3 in Calm     78 % 0.0 in 0.0 W/m2 CLR
00:39 13.3 °F 9.6 °F 1025.3 in Calm     78 % 0.0 in 0.0 W/m2 CLR
00:44 12.8 °F 9.1 °F 1025.3 in Calm     78 % 0.0 in 0.0 W/m2 CLR
00:49 12.8 °F 9.2 °F 1025.3 in Calm     79 % 0.0 in 0.0 W/m2 CLR
00:54 12.8 °F 9.2 °F 1025.3 in Calm     79 % 0.0 in 0.0 W/m2 CLR
00:59 12.8 °F 9.2 °F 1025.3 in Calm     79 % 0.0 in 0.0 W/m2 CLR
01:04 12.8 °F 9.4 °F 1025.3 in Calm     80 % 0.0 in 0.0 W/m2 CLR
01:09 12.8 °F 9.2 °F 1024.9 in Calm     79 % 0.0 in 0.0 W/m2 CLR
01:14 12.8 °F 9.4 °F 1024.9 in Calm     80 % 0.0 in 0.0 W/m2 CLR
01:19 12.8 °F 9.4 °F 1025.3 in Calm     80 % 0.0 in 0.0 W/m2 CLR
01:24 12.8 °F 9.4 °F 1025.3 in Calm     80 % 0.0 in 0.0 W/m2 CLR
01:29 12.8 °F 9.2 °F 1024.9 in Calm     79 % 0.0 in 0.0 W/m2 CLR
01:34 12.8 °F 9.2 °F 1024.9 in Calm     79 % 0.0 in 0.0 W/m2 CLR
01:39 12.8 °F 9.4 °F 1024.9 in Calm     80 % 0.0 in 0.0 W/m2 CLR
01:44 12.8 °F 9.4 °F 1024.9 in Calm     80 % 0.0 in 0.0 W/m2 CLR
01:49 12.8 °F 9.6 °F 1024.9 in Calm     81 % 0.0 in 0.0 W/m2 CLR
01:59 12.2 °F 9.1 °F 1024.6 in Calm     81 % 0.0 in 0.0 W/m2 CLR
02:04 12.2 °F 9.1 °F 1024.6 in Calm     81 % 0.0 in 0.0 W/m2 CLR
02:09 11.7 °F 8.5 °F 1024.6 in Calm     81 % 0.0 in 0.0 W/m2 CLR
02:15 11.7 °F 8.5 °F 1024.6 in Calm     81 % 0.0 in 0.0 W/m2 CLR
02:20 11.7 °F 8.5 °F 1024.6 in Calm     81 % 0.0 in 0.0 W/m2 CLR
02:25 11.7 °F 8.5 °F 1024.6 in Calm     81 % 0.0 in 0.0 W/m2 CLR
02:30 11.7 °F 8.5 °F 1024.6 in Calm     81 % 0.0 in 0.0 W/m2 CLR
02:35 11.7 °F 8.5 °F 1024.9 in Calm     81 % 0.0 in 0.0 W/m2 CLR
02:37 11.7 °F 8.5 °F 1024.9 in Calm     81 % 0.0 in 0.0 W/m2 CLR
02:42 11.7 °F 8.3 °F 1024.9 in Calm     80 % 0.0 in 0.0 W/m2 CLR
02:47 11.7 °F 8.3 °F 1024.9 in Calm     80 % 0.0 in 0.0 W/m2 CLR
02:52 11.7 °F 8.3 °F 1024.9 in Calm     80 % 0.0 in 0.0 W/m2 CLR
03:02 11.7 °F 8.9 °F 1024.9 in Calm     83 % 0.0 in 0.0 W/m2 CLR
03:07 11.1 °F 8.2 °F 1024.9 in Calm     82 % 0.0 in 0.0 W/m2 CLR
03:12 11.1 °F 8.2 °F 1024.9 in Calm     82 % 0.0 in 0.0 W/m2 CLR
03:17 11.1 °F 7.9 °F 1024.9 in Calm     81 % 0.0 in 0.0 W/m2 CLR
03:22 11.1 °F 7.9 °F 1024.9 in Calm     81 % 0.0 in 0.0 W/m2 CLR
03:27 11.1 °F 7.9 °F 1024.9 in Calm     81 % 0.0 in 0.0 W/m2 CLR
03:32 11.1 °F 8.2 °F 1024.9 in Calm     82 % 0.0 in 0.0 W/m2 CLR
03:37 11.1 °F 8.2 °F 1024.9 in Calm     82 % 0.0 in 0.0 W/m2 CLR
03:42 11.1 °F 8.3 °F 1024.9 in Calm     83 % 0.0 in 0.0 W/m2 CLR
03:47 11.1 °F 8.3 °F 1024.9 in Calm     83 % 0.0 in 0.0 W/m2 CLR
03:52 10.6 °F 7.8 °F 1024.9 in Calm     83 % 0.0 in 0.0 W/m2 CLR
03:57 10.6 °F 7.9 °F 1024.9 in Calm     84 % 0.0 in 0.0 W/m2 CLR
04:02 10.6 °F 7.8 °F 1024.9 in Calm     83 % 0.0 in 0.0 W/m2 CLR
04:07 10.6 °F 7.9 °F 1024.9 in Calm     84 % 0.0 in 0.0 W/m2 CLR
04:12 10.6 °F 7.9 °F 1024.9 in Calm     84 % 0.0 in 0.0 W/m2 CLR
04:17 10.6 °F 7.9 °F 1024.9 in Calm     84 % 0.0 in 0.0 W/m2 CLR
04:22 10.6 °F 7.9 °F 1024.9 in Calm     84 % 0.0 in 0.0 W/m2 CLR
04:27 10.6 °F 7.9 °F 1024.9 in Calm     84 % 0.0 in 0.0 W/m2 CLR
04:32 10.6 °F 7.9 °F 1024.9 in Calm     84 % 0.0 in 0.0 W/m2 CLR
04:37 10.6 °F 8.1 °F 1024.9 in Calm     85 % 0.0 in 0.0 W/m2 CLR
04:42 10.6 °F 7.9 °F 1025.3 in Calm     84 % 0.0 in 0.0 W/m2 CLR
04:47 10.6 °F 8.1 °F 1025.3 in Calm     85 % 0.0 in 0.0 W/m2 CLR
04:52 10.6 °F 8.3 °F 1025.3 in Calm     86 % 0.0 in 0.0 W/m2 CLR
04:57 11.1 °F 8.8 °F 1025.3 in Calm     86 % 0.0 in 0.0 W/m2 CLR
05:02 11.1 °F 8.8 °F 1025.3 in Calm     86 % 0.0 in 0.0 W/m2 CLR
05:07 11.1 °F 8.8 °F 1025.3 in Calm     86 % 0.0 in 0.0 W/m2 CLR
05:12 10.6 °F 8.3 °F 1025.3 in Calm     86 % 0.0 in 0.0 W/m2 CLR
05:17 10.6 °F 8.3 °F 1025.3 in Calm     86 % 0.0 in 0.0 W/m2 CLR
05:22 10.6 °F 8.3 °F 1025.3 in Calm     86 % 0.0 in 0.0 W/m2 CLR
05:27 10.6 °F 8.3 °F 1025.3 in Calm     86 % 0.0 in 0.0 W/m2 CLR
05:32 10.6 °F 8.5 °F 1025.3 in Calm     87 % 0.0 in 0.0 W/m2 CLR
05:37 10.6 °F 8.5 °F 1025.3 in Calm     87 % 0.0 in 0.0 W/m2 CLR
05:43 10.0 °F 7.9 °F 1025.3 in Calm     87 % 0.0 in 0.0 W/m2 CLR
05:48 10.0 °F 7.9 °F 1025.3 in Calm     87 % 0.0 in 0.0 W/m2 CLR
05:53 10.0 °F 7.9 °F 1025.3 in Calm     87 % 0.0 in 0.0 W/m2 CLR
05:58 10.0 °F 7.9 °F 1025.6 in Calm     87 % 0.0 in 0.0 W/m2 CLR
06:03 10.0 °F 7.9 °F 1025.6 in Calm     87 % 0.0 in 0.0 W/m2 CLR
06:08 10.0 °F 7.9 °F 1026.0 in Calm     87 % 0.0 in 0.0 W/m2 CLR
06:13 10.0 °F 7.9 °F 1026.0 in Calm     87 % 0.0 in 0.0 W/m2 CLR
06:18 10.0 °F 7.9 °F 1026.0 in Calm     87 % 0.0 in 0.0 W/m2 CLR
06:23 10.0 °F 8.1 °F 1026.0 in Calm     88 % 0.0 in 0.0 W/m2 CLR
06:28 10.6 °F 8.7 °F 1026.0 in Calm     88 % 0.0 in 0.0 W/m2 CLR
06:33 10.6 °F 8.7 °F 1026.0 in Calm     88 % 0.0 in 0.0 W/m2 CLR
06:38 10.0 °F 8.1 °F 1026.3 in Calm     88 % 0.0 in 0.0 W/m2 CLR
06:43 10.0 °F 8.1 °F 1026.3 in Calm     88 % 0.0 in 0.0 W/m2 CLR
06:48 10.0 °F 7.9 °F 1026.3 in Calm     87 % 0.0 in 0.0 W/m2 CLR
06:53 9.4 °F 7.4 °F 1026.3 in Calm     87 % 0.0 in 0.0 W/m2 CLR
06:58 9.4 °F 7.4 °F 1026.3 in Calm     87 % 0.0 in 0.0 W/m2 CLR
07:03 9.4 °F 7.4 °F 1026.3 in Calm     87 % 0.0 in 0.0 W/m2 CLR
07:08 9.4 °F 7.6 °F 1026.6 in Calm     88 % 0.0 in 0.0 W/m2 CLR
07:18 9.4 °F 7.6 °F 1026.6 in Calm     88 % 0.0 in 0.0 W/m2 CLR
07:23 9.4 °F 7.4 °F 1026.6 in Calm     87 % 0.0 in 0.0 W/m2 CLR
07:28 9.4 °F 7.4 °F 1026.6 in Calm     87 % 0.0 in 0.0 W/m2 CLR
07:33 9.4 °F 7.6 °F 1026.6 in Calm     88 % 0.0 in 0.0 W/m2 CLR
07:43 9.4 °F 7.6 °F 1026.6 in Calm     88 % 0.0 in 0.0 W/m2 CLR
07:49 9.4 °F 7.6 °F 1026.6 in Calm     88 % 0.0 in 0.0 W/m2 CLR
07:54 9.4 °F 7.6 °F 1026.3 in Calm     88 % 0.0 in 0.0 W/m2 OVC
07:59 9.4 °F 7.7 °F 1026.3 in Calm     89 % 0.0 in 5.0 W/m2 OVC
08:04 8.9 °F 7.2 °F 1026.6 in Calm     89 % 0.0 in 7.0 W/m2 BKN
08:09 8.9 °F 7.2 °F 1026.6 in Calm     89 % 0.0 in 9.0 W/m2 BKN
08:14 8.9 °F 7.2 °F 1026.6 in Calm     89 % 0.0 in 12.0 W/m2 BKN
08:19 8.9 °F 7.2 °F 1026.3 in Calm     89 % 0.0 in 14.0 W/m2 BKN
08:24 8.9 °F 7.2 °F 1026.3 in Calm     89 % 0.0 in 18.0 W/m2 BKN
08:29 9.4 °F 7.7 °F 1026.6 in Calm     89 % 0.0 in 25.0 W/m2 BKN
08:34 9.4 °F 7.7 °F 1026.6 in Calm     89 % 0.0 in 35.0 W/m2 BKN
08:39 9.4 °F 7.7 °F 1026.6 in Calm     89 % 0.0 in 46.0 W/m2 SCT
08:44 10.0 °F 8.3 °F 1026.6 in Calm     89 % 0.0 in 47.0 W/m2 SCT
08:49 10.0 °F 8.1 °F 1026.6 in Calm     88 % 0.0 in 63.0 W/m2 SCT
08:54 10.6 °F 8.5 °F 1026.6 in Calm     87 % 0.0 in 60.0 W/m2 SCT
08:59 10.6 °F 8.3 °F 1026.6 in Calm     86 % 0.0 in 69.0 W/m2 FEW
09:04 10.6 °F 8.1 °F 1026.6 in Calm     85 % 0.0 in 116.0 W/m2 FEW
09:09 11.1 °F 8.7 °F 1026.6 in Calm     85 % 0.0 in 134.0 W/m2 FEW
09:14 11.1 °F 8.5 °F 1026.6 in Calm     84 % 0.0 in 84.0 W/m2 CLR
09:16 11.1 °F 8.5 °F 1026.6 in Calm     84 % 0.0 in 156.0 W/m2 CLR
09:21 11.7 °F 9.1 °F 1026.6 in Calm     84 % 0.0 in 174.0 W/m2 CLR
09:26 11.7 °F 8.9 °F 1026.6 in Calm     83 % 0.0 in 192.0 W/m2 CLR
09:31 12.2 °F 9.2 °F 1026.6 in Calm     82 % 0.0 in 211.0 W/m2 CLR
09:36 12.2 °F 8.9 °F 1026.6 in Calm     80 % 0.0 in 229.0 W/m2 CLR
09:41 12.8 °F 9.2 °F 1026.6 in Calm     79 % 0.0 in 244.0 W/m2 CLR
09:46 13.3 °F 9.8 °F 1026.6 in Calm     79 % 0.0 in 258.0 W/m2 CLR
09:51 13.9 °F 10.1 °F 1026.6 in Calm     78 % 0.0 in 276.0 W/m2 CLR
09:56 14.4 °F 10.4 °F 1026.6 in Calm     77 % 0.0 in 292.0 W/m2 CLR
10:01 15.0 °F 10.8 °F 1026.6 in Calm     76 % 0.0 in 195.0 W/m2 CLR
10:06 15.6 °F 11.2 °F 1026.6 in Calm     75 % 0.0 in 281.0 W/m2 CLR
10:11 16.1 °F 11.7 °F 1026.6 in Calm     75 % 0.0 in 341.0 W/m2 CLR
10:16 16.7 °F 12.0 °F 1026.6 in Calm     74 % 0.0 in 352.0 W/m2 CLR
10:21 17.2 °F 12.6 °F 1026.6 in Calm     74 % 0.0 in 362.0 W/m2 CLR
10:26 17.8 °F 12.9 °F 1026.6 in Calm     73 % 0.0 in 364.0 W/m2 CLR
10:31 17.8 °F 12.7 °F 1026.6 in Calm     72 % 0.0 in 387.0 W/m2 CLR
10:36 18.3 °F 13.2 °F 1026.6 in Calm     72 % 0.0 in 404.0 W/m2 CLR
10:41 18.9 °F 13.7 °F 1026.6 in Calm     72 % 0.0 in 420.0 W/m2 CLR
10:42 18.9 °F 13.7 °F 1026.6 in Calm     72 % 0.0 in 406.0 W/m2 CLR
10:47 18.9 °F 13.3 °F 1026.6 in Calm     70 % 0.0 in 415.0 W/m2 CLR
10:52 19.4 °F 13.4 °F 1026.6 in Calm     68 % 0.0 in 450.0 W/m2 CLR
10:57 19.4 °F 13.4 °F 1026.6 in Calm     68 % 0.0 in 457.0 W/m2 CLR
11:02 19.4 °F 13.2 °F 1026.6 in Calm     67 % 0.0 in 473.0 W/m2 CLR
11:07 20.0 °F 13.4 °F 1026.6 in Calm     66 % 0.0 in 485.0 W/m2 CLR
11:12 20.0 °F 13.2 °F 1026.6 in Calm     65 % 0.0 in 499.0 W/m2 CLR
11:17 20.6 °F 13.3 °F 1026.6 in Calm     63 % 0.0 in 510.0 W/m2 CLR
11:22 20.6 °F 13.3 °F 1026.6 in Calm     63 % 0.0 in 519.0 W/m2 CLR
11:27 20.6 °F 13.3 °F 1026.6 in Calm     63 % 0.0 in 529.0 W/m2 CLR
11:32 21.1 °F 13.8 °F 1026.6 in Calm     63 % 0.0 in 538.0 W/m2 CLR
11:37 21.7 °F 14.1 °F 1026.6 in Calm     62 % 0.0 in 552.0 W/m2 CLR
11:42 21.7 °F 14.1 °F 1026.6 in Calm     62 % 0.0 in 561.0 W/m2 CLR
11:47 22.2 °F 14.3 °F 1026.6 in Calm     61 % 0.0 in 571.0 W/m2 CLR
11:52 22.2 °F 14.6 °F 1026.6 in North 3.2 mph 3.2 mph 62 % 0.0 in 582.0 W/m2 CLR
11:57 22.2 °F 14.1 °F 1026.6 in Calm     60 % 0.0 in 589.0 W/m2 CLR
12:02 22.8 °F 14.6 °F 1026.3 in WNW 1.9 mph   60 % 0.0 in 599.0 W/m2 CLR
12:07 22.8 °F 14.6 °F 1026.3 in NNW 14.8 mph 14.8 mph 60 % 0.0 in 606.0 W/m2 CLR
12:12 23.3 °F 15.1 °F 1026.3 in North 3.7 mph 3.7 mph 60 % 0.0 in 617.0 W/m2 CLR
12:17 23.3 °F 14.9 °F 1026.3 in NW 8.0 mph 8.0 mph 59 % 0.0 in 628.0 W/m2 CLR
12:22 23.3 °F 14.9 °F 1026.3 in NNW 14.8 mph 14.8 mph 59 % 0.0 in 624.0 W/m2 CLR
12:27 23.9 °F 15.1 °F 1026.3 in NW 13.0 mph 13.0 mph 58 % 0.0 in 636.0 W/m2 CLR
12:32 23.9 °F 15.1 °F 1026.3 in WNW 5.6 mph 5.6 mph 58 % 0.0 in 643.0 W/m2 CLR
12:37 24.4 °F 15.7 °F 1026.3 in NW 13.0 mph 13.0 mph 58 % 0.0 in 652.0 W/m2 CLR
12:42 24.4 °F 15.4 °F 1026.3 in NNW 6.4 mph 6.4 mph 57 % 0.0 in 656.0 W/m2 CLR
12:47 24.4 °F 14.8 °F 1026.3 in NNW 14.8 mph 14.8 mph 55 % 0.0 in 659.0 W/m2 CLR
12:52 24.4 °F 14.8 °F 1026.3 in North 7.4 mph 7.4 mph 55 % 0.0 in 663.0 W/m2 CLR
12:57 24.4 °F 15.1 °F 1026.3 in NNW 14.5 mph 14.5 mph 56 % 0.0 in 666.0 W/m2 CLR
13:02 24.4 °F 14.8 °F 1026.0 in NNW 17.7 mph 17.7 mph 55 % 0.0 in 673.0 W/m2 CLR
13:07 24.4 °F 14.8 °F 1026.0 in NW 9.3 mph 9.3 mph 55 % 0.0 in 670.0 W/m2 CLR
13:12 25.0 °F 15.3 °F 1026.0 in NW 18.5 mph 18.5 mph 55 % 0.0 in 680.0 W/m2 CLR
13:17 25.0 °F 15.1 °F 1026.0 in WNW 18.5 mph 18.5 mph 54 % 0.0 in 684.0 W/m2 CLR
13:22 25.0 °F 15.3 °F 1026.0 in NW 8.0 mph 8.2 mph 55 % 0.0 in 684.0 W/m2 CLR
13:27 25.0 °F 15.1 °F 1026.0 in NNW 9.7 mph 10.3 mph 54 % 0.0 in 682.0 W/m2 CLR
13:32 25.6 °F 15.6 °F 1025.6 in WNW 13.0 mph 13.0 mph 54 % 0.0 in 687.0 W/m2 CLR
13:37 25.6 °F 15.6 °F 1025.6 in NNW 14.8 mph 14.8 mph 54 % 0.0 in 693.0 W/m2 CLR
13:42 25.6 °F 15.6 °F 1025.6 in NNW 17.7 mph 17.7 mph 54 % 0.0 in 691.0 W/m2 CLR
13:47 25.6 °F 15.3 °F 1025.6 in NNW 14.8 mph 14.8 mph 53 % 0.0 in 693.0 W/m2 CLR
13:52 25.6 °F 15.3 °F 1025.3 in NW 5.6 mph   53 % 0.0 in 696.0 W/m2 CLR
13:53 25.6 °F 15.3 °F 1025.3 in NW 5.6 mph 5.6 mph 53 % 0.0 in 694.0 W/m2 CLR
13:58 25.6 °F 14.9 °F 1025.3 in NNW 16.7 mph 16.7 mph 52 % 0.0 in 694.0 W/m2 CLR
14:03 25.6 °F 14.9 °F 1025.3 in NW 16.7 mph 16.7 mph 52 % 0.0 in 689.0 W/m2 CLR
14:08 26.1 °F 15.5 °F 1025.3 in WNW 13.0 mph 13.0 mph 52 % 0.0 in 689.0 W/m2 CLR
14:13 26.1 °F 15.2 °F 1025.3 in NNW 11.1 mph 11.1 mph 51 % 0.0 in 689.0 W/m2 CLR
14:18 26.1 °F 14.9 °F 1024.9 in WNW 7.4 mph   50 % 0.0 in 684.0 W/m2 CLR
14:23 26.7 °F 15.4 °F 1024.9 in North 13.0 mph 13.0 mph 50 % 0.0 in 684.0 W/m2 CLR
14:28 26.1 °F 14.9 °F 1024.9 in West 13.0 mph 13.0 mph 50 % 0.0 in 680.0 W/m2 CLR
14:33 26.7 °F 15.4 °F 1024.9 in NW 20.9 mph 20.9 mph 50 % 0.0 in 673.0 W/m2 CLR
14:38 26.7 °F 15.4 °F 1024.9 in NNW 11.1 mph 11.1 mph 50 % 0.0 in 670.0 W/m2 CLR
14:43 26.7 °F 15.4 °F 1024.9 in WNW 16.7 mph 16.7 mph 50 % 0.0 in 666.0 W/m2 CLR
14:48 26.7 °F 15.1 °F 1024.6 in WNW 18.5 mph 18.5 mph 49 % 0.0 in 663.0 W/m2 CLR
14:53 26.7 °F 15.1 °F 1024.6 in NW 16.7 mph 16.7 mph 49 % 0.0 in 663.0 W/m2 CLR
14:58 27.2 °F 15.3 °F 1024.6 in NW 13.0 mph 13.0 mph 48 % 0.0 in 652.0 W/m2 CLR
15:03 27.2 °F 15.3 °F 1024.6 in West 7.4 mph 7.4 mph 48 % 0.0 in 650.0 W/m2 CLR
15:08 27.2 °F 15.3 °F 1024.3 in WNW 19.3 mph 19.3 mph 48 % 0.0 in 645.0 W/m2 CLR
15:13 27.2 °F 15.3 °F 1024.3 in WNW 16.7 mph 16.7 mph 48 % 0.0 in 640.0 W/m2 CLR
15:18 27.2 °F 14.9 °F 1024.3 in North 18.5 mph 18.5 mph 47 % 0.0 in 633.0 W/m2 CLR
15:23 27.2 °F 14.9 °F 1024.3 in North 3.2 mph 3.2 mph 47 % 0.0 in 624.0 W/m2 CLR
15:28 27.2 °F 14.6 °F 1024.3 in NNE 13.0 mph 13.0 mph 46 % 0.0 in 587.0 W/m2 CLR
15:33 27.2 °F 14.6 °F 1024.3 in West 14.8 mph 14.8 mph 46 % 0.0 in 610.0 W/m2 CLR
15:38 27.8 °F 15.4 °F 1024.3 in NNW 12.9 mph 12.9 mph 47 % 0.0 in 599.0 W/m2 CLR
15:43 27.2 °F 14.6 °F 1023.9 in NW 11.1 mph 11.1 mph 46 % 0.0 in 591.0 W/m2 CLR
15:48 27.2 °F 14.3 °F 1023.9 in WNW 3.7 mph   45 % 0.0 in 582.0 W/m2 CLR
15:49 27.2 °F 14.3 °F 1023.9 in NW 8.0 mph 8.0 mph 45 % 0.0 in 582.0 W/m2 CLR
15:54 27.2 °F 14.3 °F 1023.9 in NNE 13.0 mph 13.0 mph 45 % 0.0 in 573.0 W/m2 CLR
15:59 27.2 °F 14.3 °F 1023.9 in NW 9.7 mph 9.7 mph 45 % 0.0 in 564.0 W/m2 CLR
16:04 27.2 °F 13.9 °F 1023.9 in WNW 13.0 mph 13.0 mph 44 % 0.0 in 559.0 W/m2 CLR
16:09 27.2 °F 13.9 °F 1023.9 in WNW 9.3 mph 9.3 mph 44 % 0.0 in 541.0 W/m2 CLR
16:14 27.8 °F 14.4 °F 1023.9 in NNW 18.5 mph 18.5 mph 44 % 0.0 in 533.0 W/m2 CLR
16:19 27.8 °F 14.8 °F 1023.9 in WNW 7.4 mph 7.4 mph 45 % 0.0 in 524.0 W/m2 CLR
16:24 27.8 °F 14.1 °F 1023.9 in NNW 16.7 mph 16.7 mph 43 % 0.0 in 515.0 W/m2 CLR
16:29 27.8 °F 14.1 °F 1023.9 in NNW 9.7 mph 9.7 mph 43 % 0.0 in 508.0 W/m2 CLR
16:34 27.8 °F 14.4 °F 1023.6 in Calm     44 % 0.0 in 455.0 W/m2 CLR
16:39 27.8 °F 14.1 °F 1023.6 in NNW 5.6 mph 5.6 mph 43 % 0.0 in 436.0 W/m2 CLR
16:44 27.8 °F 14.1 °F 1023.6 in NW 13.0 mph 13.0 mph 43 % 0.0 in 471.0 W/m2 CLR
16:49 27.2 °F 13.2 °F 1023.6 in West 4.8 mph 4.8 mph 42 % 0.0 in 457.0 W/m2 CLR
16:54 27.8 °F 13.7 °F 1023.6 in WNW 13.0 mph 13.0 mph 42 % 0.0 in 446.0 W/m2 CLR
16:59 27.8 °F 14.4 °F 1023.6 in North 9.7 mph 9.7 mph 44 % 0.0 in 431.0 W/m2 CLR
17:04 27.2 °F 13.9 °F 1023.6 in West 7.4 mph 7.4 mph 44 % 0.0 in 406.0 W/m2 CLR
17:09 27.2 °F 14.3 °F 1023.6 in NNW 18.5 mph 18.5 mph 45 % 0.0 in 404.0 W/m2 CLR
17:14 27.2 °F 15.3 °F 1023.6 in NNE 11.3 mph 11.3 mph 48 % 0.0 in 396.0 W/m2 CLR
17:19 27.2 °F 15.6 °F 1023.6 in NNE 13.0 mph 13.0 mph 49 % 0.0 in 387.0 W/m2 CLR
17:24 27.2 °F 16.5 °F 1023.6 in NNW 16.7 mph 16.7 mph 52 % 0.0 in 383.0 W/m2 CLR
17:29 27.2 °F 16.5 °F 1023.2 in North 1.9 mph   52 % 0.0 in 367.0 W/m2 CLR
17:34 27.2 °F 16.5 °F 1023.2 in NE 14.8 mph 14.8 mph 52 % 0.0 in 346.0 W/m2 CLR
17:39 27.2 °F 16.5 °F 1023.2 in NE 9.3 mph 9.3 mph 52 % 0.0 in 302.0 W/m2 CLR
17:44 27.2 °F 16.5 °F 1023.2 in NE 6.4 mph 6.4 mph 52 % 0.0 in 260.0 W/m2 CLR
17:49 27.2 °F 16.2 °F 1023.2 in NE 5.6 mph 5.6 mph 51 % 0.0 in 248.0 W/m2 CLR
17:54 27.2 °F 16.8 °F 1023.2 in East 18.5 mph 18.5 mph 53 % 0.0 in 199.0 W/m2 CLR
17:59 26.7 °F 16.9 °F 1023.2 in ENE 14.8 mph 14.8 mph 55 % 0.0 in 278.0 W/m2 CLR
18:04 26.7 °F 16.9 °F 1023.2 in ENE 16.7 mph 16.7 mph 55 % 0.0 in 267.0 W/m2 CLR
18:09 26.1 °F 16.7 °F 1023.2 in NE 14.8 mph 14.8 mph 56 % 0.0 in 237.0 W/m2 CLR
18:14 26.1 °F 16.7 °F 1023.2 in NNE 11.1 mph 11.1 mph 56 % 0.0 in 156.0 W/m2 CLR
18:19 25.6 °F 16.4 °F 1023.2 in NE 8.0 mph 8.0 mph 57 % 0.0 in 151.0 W/m2 CLR
18:24 25.6 °F 16.4 °F 1023.2 in NE 9.7 mph 9.7 mph 57 % 0.0 in 76.0 W/m2 CLR
18:29 25.6 °F 16.7 °F 1023.2 in NE 11.3 mph 11.3 mph 58 % 0.0 in 95.0 W/m2 CLR
18:34 25.0 °F 16.2 °F 1023.2 in NE 16.7 mph 16.7 mph 58 % 0.0 in 51.0 W/m2 FEW
18:39 25.0 °F 16.2 °F 1023.2 in NE 13.0 mph 13.0 mph 58 % 0.0 in 37.0 W/m2 BKN
18:44 24.4 °F 16.2 °F 1023.2 in NE 18.5 mph 18.5 mph 60 % 0.0 in 37.0 W/m2 BKN
18:49 24.4 °F 16.4 °F 1023.2 in NNE 11.3 mph 11.3 mph 61 % 0.0 in 28.0 W/m2 BKN
18:54 23.9 °F 16.2 °F 1023.2 in NE 16.7 mph 16.7 mph 62 % 0.0 in 23.0 W/m2 BKN
18:59 23.9 °F 16.2 °F 1023.6 in NE 9.7 mph 9.7 mph 62 % 0.0 in 23.0 W/m2 BKN
19:04 23.3 °F 15.9 °F 1023.6 in NE 14.8 mph 14.8 mph 63 % 0.0 in 28.0 W/m2 BKN
19:09 23.3 °F 15.9 °F 1023.6 in ENE 7.4 mph 7.4 mph 63 % 0.0 in 19.0 W/m2 BKN
19:14 22.8 °F 15.6 °F 1023.6 in NE 9.3 mph 9.3 mph 64 % 0.0 in 14.0 W/m2 BKN
19:19 22.8 °F 15.8 °F 1023.6 in ENE 8.0 mph 8.0 mph 65 % 0.0 in 12.0 W/m2 BKN
19:24 22.2 °F 15.3 °F 1023.9 in Calm   2.7 mph 65 % 0.0 in 11.0 W/m2 BKN
19:30 22.2 °F 15.6 °F 1023.6 in Calm   1.1 mph 66 % 0.0 in 7.0 W/m2 BKN
19:35 22.2 °F 15.6 °F 1023.6 in ENE 13.0 mph 13.0 mph 66 % 0.0 in 0.0 W/m2 OVC
19:40 21.7 °F 15.3 °F 1023.6 in ENE 14.5 mph 14.5 mph 67 % 0.0 in 0.0 W/m2 OVC
19:45 21.7 °F 15.5 °F 1023.6 in ENE 14.8 mph 14.8 mph 68 % 0.0 in 0.0 W/m2 OVC
19:50 21.1 °F 15.0 °F 1023.6 in ENE 16.1 mph 16.1 mph 68 % 0.0 in 0.0 W/m2 CLR
19:55 21.1 °F 15.2 °F 1023.9 in ENE 14.8 mph 14.8 mph 69 % 0.0 in 0.0 W/m2 CLR
20:00 21.7 °F 15.7 °F 1023.9 in ENE 7.4 mph 7.4 mph 69 % 0.0 in 0.0 W/m2 CLR
20:05 21.1 °F 15.2 °F 1023.9 in East 6.4 mph 7.1 mph 69 % 0.0 in 0.0 W/m2 CLR
20:10 21.1 °F 15.2 °F 1023.9 in Calm     69 % 0.0 in 0.0 W/m2 CLR
20:15 20.6 °F 14.9 °F 1023.9 in ENE 6.4 mph 6.4 mph 70 % 0.0 in 0.0 W/m2 CLR
20:20 20.0 °F 14.3 °F 1023.9 in Calm     70 % 0.0 in 0.0 W/m2 CLR
20:25 19.4 °F 14.1 °F 1024.3 in East 8.0 mph 8.0 mph 71 % 0.0 in 0.0 W/m2 CLR
20:30 19.4 °F 14.1 °F 1024.3 in East 11.1 mph 11.1 mph 71 % 0.0 in 0.0 W/m2 CLR
20:35 19.4 °F 14.1 °F 1024.3 in ENE 14.8 mph 14.8 mph 71 % 0.0 in 0.0 W/m2 CLR
20:40 18.9 °F 13.5 °F 1024.3 in ENE 11.3 mph 11.3 mph 71 % 0.0 in 0.0 W/m2 CLR
20:45 18.9 °F 13.7 °F 1024.3 in ENE 5.6 mph 5.6 mph 72 % 0.0 in 0.0 W/m2 CLR
20:50 18.9 °F 13.7 °F 1024.3 in ENE 3.2 mph 3.2 mph 72 % 0.0 in 0.0 W/m2 CLR
20:55 18.3 °F 13.2 °F 1024.3 in ENE 5.6 mph 5.6 mph 72 % 0.0 in 0.0 W/m2 CLR
21:00 18.3 °F 13.4 °F 1024.3 in Calm     73 % 0.0 in 0.0 W/m2 CLR
21:05 17.8 °F 12.9 °F 1024.3 in Calm     73 % 0.0 in 0.0 W/m2 CLR
21:10 17.8 °F 13.1 °F 1024.6 in Calm     74 % 0.0 in 0.0 W/m2 CLR
21:15 17.2 °F 12.6 °F 1024.6 in Calm     74 % 0.0 in 0.0 W/m2 CLR
21:30 16.7 °F 12.0 °F 1024.6 in Calm     74 % 0.0 in 0.0 W/m2 CLR
21:35 16.7 °F 12.2 °F 1024.6 in Calm     75 % 0.0 in 0.0 W/m2 CLR
21:40 16.7 °F 12.4 °F 1024.6 in Calm     76 % 0.0 in 0.0 W/m2 CLR
21:45 16.1 °F 11.7 °F 1024.6 in Calm     75 % 0.0 in 0.0 W/m2 CLR
21:50 16.1 °F 11.9 °F 1024.6 in Calm     76 % 0.0 in 0.0 W/m2 CLR
21:55 16.1 °F 11.9 °F 1024.6 in Calm     76 % 0.0 in 0.0 W/m2 CLR
22:00 16.1 °F 11.9 °F 1024.6 in Calm     76 % 0.0 in 0.0 W/m2 CLR
22:05 16.1 °F 12.1 °F 1024.9 in Calm     77 % 0.0 in 0.0 W/m2 CLR
22:10 16.1 °F 12.1 °F 1024.6 in Calm     77 % 0.0 in 0.0 W/m2 CLR
22:15 15.6 °F 11.6 °F 1024.9 in Calm     77 % 0.0 in 0.0 W/m2 CLR
22:20 15.6 °F 11.7 °F 1024.9 in Calm     78 % 0.0 in 0.0 W/m2 CLR
22:25 15.6 °F 11.7 °F 1024.9 in Calm     78 % 0.0 in 0.0 W/m2 CLR
22:30 15.6 °F 11.6 °F 1024.9 in Calm     77 % 0.0 in 0.0 W/m2 CLR
22:35 15.6 °F 11.7 °F 1024.9 in Calm     78 % 0.0 in 0.0 W/m2 CLR
22:40 15.0 °F 11.2 °F 1024.9 in Calm     78 % 0.0 in 0.0 W/m2 CLR
22:45 15.0 °F 11.4 °F 1024.9 in Calm     79 % 0.0 in 0.0 W/m2 CLR
22:50 15.0 °F 11.4 °F 1024.9 in Calm     79 % 0.0 in 0.0 W/m2 CLR
22:55 15.0 °F 11.4 °F 1024.9 in Calm     79 % 0.0 in 0.0 W/m2 CLR
23:00 15.0 °F 11.6 °F 1024.9 in Calm     80 % 0.0 in 0.0 W/m2 CLR
23:06 15.0 °F 11.8 °F 1024.9 in Calm     81 % 0.0 in 0.0 W/m2 CLR
23:11 14.4 °F 11.2 °F 1024.9 in Calm     81 % 0.0 in 0.0 W/m2 CLR
23:16 15.0 °F 11.6 °F 1024.9 in Calm     80 % 0.0 in 0.0 W/m2 CLR
23:21 14.4 °F 11.2 °F 1025.3 in Calm     81 % 0.0 in 0.0 W/m2 CLR
23:26 14.4 °F 11.4 °F 1025.3 in Calm     82 % 0.0 in 0.0 W/m2 CLR
23:31 14.4 °F 11.4 °F 1025.3 in Calm     82 % 0.0 in 0.0 W/m2 CLR
23:36 14.4 °F 11.4 °F 1025.3 in Calm     82 % 0.0 in 0.0 W/m2 CLR
23:41 14.4 °F 11.6 °F 1025.3 in Calm     83 % 0.0 in 0.0 W/m2 CLR
23:46 15.0 °F 12.1 °F 1025.3 in Calm     83 % 0.0 in 0.0 W/m2 CLR
23:56 14.4 °F 11.8 °F 1025.3 in Calm     84 % 0.0 in 0.0 W/m2 CLR
Lo Temps de Massalio
Compliments of Weather Underground - 1.25 mb